sensor_id;sensor_type;location;lat;lon;timestamp;P1;durP1;ratioP1;P2;durP2;ratioP2
57341;SDS011;43175;51.002;18.316;2023-05-31T00:00:21;12.20;;;5.00;;
57341;SDS011;43175;51.002;18.316;2023-05-31T00:02:47;14.30;;;5.00;;
57341;SDS011;43175;51.002;18.316;2023-05-31T00:05:12;15.20;;;5.10;;
57341;SDS011;43175;51.002;18.316;2023-05-31T00:07:38;12.70;;;4.90;;
57341;SDS011;43175;51.002;18.316;2023-05-31T00:10:03;11.80;;;4.80;;
57341;SDS011;43175;51.002;18.316;2023-05-31T00:12:29;12.60;;;4.80;;
57341;SDS011;43175;51.002;18.316;2023-05-31T00:14:54;13.20;;;5.30;;
57341;SDS011;43175;51.002;18.316;2023-05-31T00:17:20;12.30;;;4.90;;
57341;SDS011;43175;51.002;18.316;2023-05-31T00:19:47;13.10;;;4.80;;
57341;SDS011;43175;51.002;18.316;2023-05-31T00:22:13;12.90;;;4.90;;
57341;SDS011;43175;51.002;18.316;2023-05-31T00:24:42;12.60;;;5.00;;
57341;SDS011;43175;51.002;18.316;2023-05-31T00:27:08;13.90;;;5.00;;
57341;SDS011;43175;51.002;18.316;2023-05-31T00:29:34;12.90;;;5.00;;
57341;SDS011;43175;51.002;18.316;2023-05-31T00:31:59;13.30;;;5.30;;
57341;SDS011;43175;51.002;18.316;2023-05-31T00:34:25;12.70;;;4.90;;
57341;SDS011;43175;51.002;18.316;2023-05-31T00:36:50;12.80;;;5.50;;
57341;SDS011;43175;51.002;18.316;2023-05-31T00:39:16;13.30;;;5.00;;
57341;SDS011;43175;51.002;18.316;2023-05-31T00:41:42;12.70;;;5.10;;
57341;SDS011;43175;51.002;18.316;2023-05-31T00:44:07;12.00;;;4.80;;
57341;SDS011;43175;51.002;18.316;2023-05-31T00:46:33;16.10;;;4.90;;
57341;SDS011;43175;51.002;18.316;2023-05-31T00:49:00;13.50;;;5.10;;
57341;SDS011;43175;51.002;18.316;2023-05-31T00:51:27;15.30;;;5.20;;
57341;SDS011;43175;51.002;18.316;2023-05-31T00:53:53;14.20;;;5.10;;
57341;SDS011;43175;51.002;18.316;2023-05-31T00:56:19;16.20;;;5.50;;
57341;SDS011;43175;51.002;18.316;2023-05-31T00:58:44;13.20;;;5.60;;
57341;SDS011;43175;51.002;18.316;2023-05-31T01:01:12;14.10;;;5.40;;
57341;SDS011;43175;51.002;18.316;2023-05-31T01:03:38;13.30;;;5.30;;
57341;SDS011;43175;51.002;18.316;2023-05-31T01:06:05;12.40;;;4.90;;
57341;SDS011;43175;51.002;18.316;2023-05-31T01:08:31;13.70;;;5.80;;
57341;SDS011;43175;51.002;18.316;2023-05-31T01:10:57;12.50;;;5.50;;
57341;SDS011;43175;51.002;18.316;2023-05-31T01:13:32;12.60;;;4.90;;
57341;SDS011;43175;51.002;18.316;2023-05-31T01:16:21;13.90;;;5.20;;
57341;SDS011;43175;51.002;18.316;2023-05-31T01:18:52;14.30;;;5.10;;
57341;SDS011;43175;51.002;18.316;2023-05-31T01:21:21;13.40;;;5.20;;
57341;SDS011;43175;51.002;18.316;2023-05-31T01:26:50;14.80;;;5.30;;
57341;SDS011;43175;51.002;18.316;2023-05-31T01:29:19;13.50;;;5.00;;
57341;SDS011;43175;51.002;18.316;2023-05-31T01:31:47;14.00;;;5.20;;
57341;SDS011;43175;51.002;18.316;2023-05-31T01:34:13;12.40;;;5.20;;
57341;SDS011;43175;51.002;18.316;2023-05-31T01:36:39;12.60;;;5.20;;
57341;SDS011;43175;51.002;18.316;2023-05-31T01:39:05;12.40;;;4.90;;
57341;SDS011;43175;51.002;18.316;2023-05-31T01:41:31;13.10;;;4.90;;
57341;SDS011;43175;51.002;18.316;2023-05-31T01:44:00;12.50;;;5.40;;
57341;SDS011;43175;51.002;18.316;2023-05-31T01:46:25;12.30;;;5.20;;
57341;SDS011;43175;51.002;18.316;2023-05-31T01:48:51;14.00;;;5.10;;
57341;SDS011;43175;51.002;18.316;2023-05-31T01:51:17;13.30;;;5.00;;
57341;SDS011;43175;51.002;18.316;2023-05-31T01:53:43;13.40;;;5.10;;
57341;SDS011;43175;51.002;18.316;2023-05-31T01:56:09;14.20;;;5.10;;
57341;SDS011;43175;51.002;18.316;2023-05-31T01:58:34;12.70;;;4.90;;
57341;SDS011;43175;51.002;18.316;2023-05-31T02:01:02;14.50;;;5.00;;
57341;SDS011;43175;51.002;18.316;2023-05-31T02:03:28;11.70;;;5.10;;
57341;SDS011;43175;51.002;18.316;2023-05-31T02:05:56;12.20;;;4.70;;
57341;SDS011;43175;51.002;18.316;2023-05-31T02:08:22;14.50;;;4.80;;
57341;SDS011;43175;51.002;18.316;2023-05-31T02:10:48;11.70;;;4.50;;
57341;SDS011;43175;51.002;18.316;2023-05-31T02:13:14;12.90;;;4.50;;
57341;SDS011;43175;51.002;18.316;2023-05-31T02:15:40;11.30;;;4.80;;
57341;SDS011;43175;51.002;18.316;2023-05-31T02:18:06;11.50;;;4.70;;
57341;SDS011;43175;51.002;18.316;2023-05-31T02:20:33;13.60;;;4.80;;
57341;SDS011;43175;51.002;18.316;2023-05-31T02:22:59;14.70;;;4.70;;
57341;SDS011;43175;51.002;18.316;2023-05-31T02:25:24;12.50;;;4.60;;
57341;SDS011;43175;51.002;18.316;2023-05-31T02:27:50;10.30;;;4.60;;
57341;SDS011;43175;51.002;18.316;2023-05-31T02:30:15;11.20;;;4.50;;
57341;SDS011;43175;51.002;18.316;2023-05-31T02:32:41;11.30;;;4.40;;
57341;SDS011;43175;51.002;18.316;2023-05-31T02:35:09;11.80;;;4.30;;
57341;SDS011;43175;51.002;18.316;2023-05-31T02:37:36;12.10;;;4.60;;
57341;SDS011;43175;51.002;18.316;2023-05-31T02:40:04;11.10;;;4.60;;
57341;SDS011;43175;51.002;18.316;2023-05-31T02:42:34;13.70;;;4.30;;
57341;SDS011;43175;51.002;18.316;2023-05-31T02:45:01;13.10;;;4.30;;
57341;SDS011;43175;51.002;18.316;2023-05-31T02:47:27;12.00;;;4.00;;
57341;SDS011;43175;51.002;18.316;2023-05-31T02:49:53;10.30;;;4.00;;
57341;SDS011;43175;51.002;18.316;2023-05-31T02:52:18;12.80;;;4.20;;
57341;SDS011;43175;51.002;18.316;2023-05-31T02:54:43;10.30;;;4.00;;
57341;SDS011;43175;51.002;18.316;2023-05-31T02:57:09;11.60;;;4.20;;
57341;SDS011;43175;51.002;18.316;2023-05-31T02:59:35;11.90;;;4.50;;
57341;SDS011;43175;51.002;18.316;2023-05-31T03:02:01;12.60;;;4.60;;
57341;SDS011;43175;51.002;18.316;2023-05-31T03:04:26;15.10;;;4.70;;
57341;SDS011;43175;51.002;18.316;2023-05-31T03:06:52;11.30;;;4.40;;
57341;SDS011;43175;51.002;18.316;2023-05-31T03:09:17;12.80;;;4.60;;
57341;SDS011;43175;51.002;18.316;2023-05-31T03:11:43;14.70;;;4.90;;
57341;SDS011;43175;51.002;18.316;2023-05-31T03:14:09;14.50;;;4.80;;
57341;SDS011;43175;51.002;18.316;2023-05-31T03:16:34;13.20;;;4.90;;
57341;SDS011;43175;51.002;18.316;2023-05-31T03:19:00;13.50;;;5.10;;
57341;SDS011;43175;51.002;18.316;2023-05-31T03:21:25;14.10;;;5.00;;
57341;SDS011;43175;51.002;18.316;2023-05-31T03:23:51;12.70;;;4.80;;
57341;SDS011;43175;51.002;18.316;2023-05-31T03:26:16;14.60;;;5.00;;
57341;SDS011;43175;51.002;18.316;2023-05-31T03:28:42;12.40;;;4.70;;
57341;SDS011;43175;51.002;18.316;2023-05-31T03:31:07;14.30;;;4.70;;
57341;SDS011;43175;51.002;18.316;2023-05-31T03:33:33;11.10;;;4.30;;
57341;SDS011;43175;51.002;18.316;2023-05-31T03:36:00;14.50;;;4.80;;
57341;SDS011;43175;51.002;18.316;2023-05-31T03:38:27;12.60;;;4.80;;
57341;SDS011;43175;51.002;18.316;2023-05-31T03:40:53;12.50;;;4.70;;
57341;SDS011;43175;51.002;18.316;2023-05-31T03:43:19;12.10;;;5.00;;
57341;SDS011;43175;51.002;18.316;2023-05-31T03:45:45;13.00;;;4.90;;
57341;SDS011;43175;51.002;18.316;2023-05-31T03:48:11;12.10;;;4.70;;
57341;SDS011;43175;51.002;18.316;2023-05-31T03:50:38;14.00;;;4.80;;
57341;SDS011;43175;51.002;18.316;2023-05-31T03:53:04;15.40;;;5.20;;
57341;SDS011;43175;51.002;18.316;2023-05-31T03:55:30;14.40;;;5.20;;
57341;SDS011;43175;51.002;18.316;2023-05-31T03:57:56;13.30;;;5.00;;
57341;SDS011;43175;51.002;18.316;2023-05-31T04:00:21;14.40;;;4.90;;
57341;SDS011;43175;51.002;18.316;2023-05-31T04:02:47;16.40;;;5.30;;
57341;SDS011;43175;51.002;18.316;2023-05-31T04:05:12;11.80;;;5.00;;
57341;SDS011;43175;51.002;18.316;2023-05-31T04:07:38;12.30;;;5.00;;
57341;SDS011;43175;51.002;18.316;2023-05-31T04:10:04;12.10;;;4.80;;
57341;SDS011;43175;51.002;18.316;2023-05-31T04:12:30;15.20;;;4.70;;
57341;SDS011;43175;51.002;18.316;2023-05-31T04:14:55;14.20;;;4.90;;
57341;SDS011;43175;51.002;18.316;2023-05-31T04:17:21;17.90;;;6.30;;
57341;SDS011;43175;51.002;18.316;2023-05-31T04:19:47;11.80;;;4.60;;
57341;SDS011;43175;51.002;18.316;2023-05-31T04:22:12;13.70;;;4.80;;
57341;SDS011;43175;51.002;18.316;2023-05-31T04:24:37;11.70;;;4.90;;
57341;SDS011;43175;51.002;18.316;2023-05-31T04:27:03;11.10;;;4.80;;
57341;SDS011;43175;51.002;18.316;2023-05-31T04:29:29;12.80;;;4.80;;
57341;SDS011;43175;51.002;18.316;2023-05-31T04:31:54;11.20;;;4.80;;
57341;SDS011;43175;51.002;18.316;2023-05-31T04:34:20;13.90;;;5.10;;
57341;SDS011;43175;51.002;18.316;2023-05-31T04:36:46;14.20;;;5.20;;
57341;SDS011;43175;51.002;18.316;2023-05-31T04:39:15;12.90;;;5.40;;
57341;SDS011;43175;51.002;18.316;2023-05-31T04:41:42;14.30;;;5.50;;
57341;SDS011;43175;51.002;18.316;2023-05-31T04:44:07;14.30;;;6.10;;
57341;SDS011;43175;51.002;18.316;2023-05-31T04:46:33;14.50;;;5.60;;
57341;SDS011;43175;51.002;18.316;2023-05-31T04:48:58;14.70;;;5.70;;
57341;SDS011;43175;51.002;18.316;2023-05-31T04:51:26;17.90;;;6.20;;
57341;SDS011;43175;51.002;18.316;2023-05-31T04:53:52;15.30;;;5.10;;
57341;SDS011;43175;51.002;18.316;2023-05-31T04:56:18;14.30;;;5.60;;
57341;SDS011;43175;51.002;18.316;2023-05-31T04:58:44;14.00;;;5.60;;
57341;SDS011;43175;51.002;18.316;2023-05-31T05:01:10;13.50;;;5.10;;
57341;SDS011;43175;51.002;18.316;2023-05-31T05:03:40;13.80;;;5.10;;
57341;SDS011;43175;51.002;18.316;2023-05-31T05:06:15;12.70;;;5.10;;
57341;SDS011;43175;51.002;18.316;2023-05-31T05:08:44;16.60;;;5.30;;
57341;SDS011;43175;51.002;18.316;2023-05-31T05:11:11;12.10;;;5.10;;
57341;SDS011;43175;51.002;18.316;2023-05-31T05:13:36;14.00;;;5.10;;
57341;SDS011;43175;51.002;18.316;2023-05-31T05:16:02;14.00;;;5.30;;
57341;SDS011;43175;51.002;18.316;2023-05-31T05:18:28;12.60;;;5.20;;
57341;SDS011;43175;51.002;18.316;2023-05-31T05:20:55;14.30;;;4.90;;
57341;SDS011;43175;51.002;18.316;2023-05-31T05:23:22;16.80;;;5.00;;
57341;SDS011;43175;51.002;18.316;2023-05-31T05:25:48;12.00;;;5.00;;
57341;SDS011;43175;51.002;18.316;2023-05-31T05:28:13;14.40;;;5.30;;
57341;SDS011;43175;51.002;18.316;2023-05-31T05:30:39;12.70;;;4.60;;
57341;SDS011;43175;51.002;18.316;2023-05-31T05:33:05;12.80;;;4.60;;
57341;SDS011;43175;51.002;18.316;2023-05-31T05:35:31;11.50;;;4.50;;
57341;SDS011;43175;51.002;18.316;2023-05-31T05:37:59;13.40;;;5.50;;
57341;SDS011;43175;51.002;18.316;2023-05-31T05:40:25;15.20;;;5.80;;
57341;SDS011;43175;51.002;18.316;2023-05-31T05:42:52;14.30;;;4.90;;
57341;SDS011;43175;51.002;18.316;2023-05-31T05:45:18;11.90;;;5.00;;
57341;SDS011;43175;51.002;18.316;2023-05-31T05:47:44;12.70;;;5.20;;
57341;SDS011;43175;51.002;18.316;2023-05-31T05:50:11;13.30;;;5.30;;
57341;SDS011;43175;51.002;18.316;2023-05-31T05:52:37;12.80;;;5.10;;
57341;SDS011;43175;51.002;18.316;2023-05-31T05:55:04;12.40;;;4.50;;
57341;SDS011;43175;51.002;18.316;2023-05-31T05:57:30;11.50;;;4.70;;
57341;SDS011;43175;51.002;18.316;2023-05-31T05:59:56;11.70;;;4.50;;
57341;SDS011;43175;51.002;18.316;2023-05-31T06:02:22;13.10;;;4.50;;
57341;SDS011;43175;51.002;18.316;2023-05-31T06:04:47;12.10;;;4.50;;
57341;SDS011;43175;51.002;18.316;2023-05-31T06:07:15;12.70;;;4.60;;
57341;SDS011;43175;51.002;18.316;2023-05-31T06:09:41;13.30;;;4.40;;
57341;SDS011;43175;51.002;18.316;2023-05-31T06:12:07;10.80;;;4.10;;
57341;SDS011;43175;51.002;18.316;2023-05-31T06:14:34;11.30;;;4.30;;
57341;SDS011;43175;51.002;18.316;2023-05-31T06:17:00;12.20;;;4.00;;
57341;SDS011;43175;51.002;18.316;2023-05-31T06:19:26;10.70;;;4.30;;
57341;SDS011;43175;51.002;18.316;2023-05-31T06:21:51;10.60;;;4.00;;
57341;SDS011;43175;51.002;18.316;2023-05-31T06:24:19;12.40;;;4.30;;
57341;SDS011;43175;51.002;18.316;2023-05-31T06:26:44;12.80;;;4.20;;
57341;SDS011;43175;51.002;18.316;2023-05-31T06:29:10;11.80;;;3.80;;
57341;SDS011;43175;51.002;18.316;2023-05-31T06:31:36;12.10;;;4.10;;
57341;SDS011;43175;51.002;18.316;2023-05-31T06:34:04;11.30;;;3.80;;
57341;SDS011;43175;51.002;18.316;2023-05-31T06:36:30;11.40;;;3.60;;
57341;SDS011;43175;51.002;18.316;2023-05-31T06:38:57;11.70;;;4.00;;
57341;SDS011;43175;51.002;18.316;2023-05-31T06:41:23;11.40;;;3.60;;
57341;SDS011;43175;51.002;18.316;2023-05-31T06:43:48;10.70;;;3.60;;
57341;SDS011;43175;51.002;18.316;2023-05-31T06:46:14;12.10;;;3.60;;
57341;SDS011;43175;51.002;18.316;2023-05-31T06:48:40;11.80;;;3.70;;
57341;SDS011;43175;51.002;18.316;2023-05-31T06:51:05;11.20;;;3.50;;
57341;SDS011;43175;51.002;18.316;2023-05-31T06:53:31;11.60;;;3.60;;
57341;SDS011;43175;51.002;18.316;2023-05-31T06:55:57;13.60;;;3.80;;
57341;SDS011;43175;51.002;18.316;2023-05-31T06:58:22;13.50;;;3.70;;
57341;SDS011;43175;51.002;18.316;2023-05-31T07:00:48;10.80;;;3.40;;
57341;SDS011;43175;51.002;18.316;2023-05-31T07:03:13;10.20;;;3.30;;
57341;SDS011;43175;51.002;18.316;2023-05-31T07:05:38;15.00;;;3.70;;
57341;SDS011;43175;51.002;18.316;2023-05-31T07:08:07;11.60;;;3.50;;
57341;SDS011;43175;51.002;18.316;2023-05-31T07:10:33;12.30;;;3.50;;
57341;SDS011;43175;51.002;18.316;2023-05-31T07:12:58;10.40;;;3.50;;
57341;SDS011;43175;51.002;18.316;2023-05-31T07:15:24;10.10;;;2.90;;
57341;SDS011;43175;51.002;18.316;2023-05-31T07:17:50;11.50;;;3.20;;
57341;SDS011;43175;51.002;18.316;2023-05-31T07:20:16;9.20;;;2.90;;
57341;SDS011;43175;51.002;18.316;2023-05-31T07:22:42;10.60;;;3.20;;
57341;SDS011;43175;51.002;18.316;2023-05-31T07:25:07;11.30;;;3.20;;
57341;SDS011;43175;51.002;18.316;2023-05-31T07:27:33;10.60;;;3.20;;
57341;SDS011;43175;51.002;18.316;2023-05-31T07:29:59;8.30;;;2.80;;
57341;SDS011;43175;51.002;18.316;2023-05-31T07:32:24;10.50;;;2.80;;
57341;SDS011;43175;51.002;18.316;2023-05-31T07:34:50;7.90;;;2.30;;
57341;SDS011;43175;51.002;18.316;2023-05-31T07:37:15;8.70;;;2.70;;
57341;SDS011;43175;51.002;18.316;2023-05-31T07:39:41;10.50;;;3.30;;
57341;SDS011;43175;51.002;18.316;2023-05-31T07:42:08;9.60;;;2.80;;
57341;SDS011;43175;51.002;18.316;2023-05-31T07:44:33;10.40;;;2.90;;
57341;SDS011;43175;51.002;18.316;2023-05-31T07:46:59;9.20;;;3.20;;
57341;SDS011;43175;51.002;18.316;2023-05-31T07:49:24;8.20;;;2.80;;
57341;SDS011;43175;51.002;18.316;2023-05-31T07:51:51;11.00;;;2.90;;
57341;SDS011;43175;51.002;18.316;2023-05-31T07:54:17;8.80;;;2.70;;
57341;SDS011;43175;51.002;18.316;2023-05-31T07:56:42;9.70;;;2.80;;
57341;SDS011;43175;51.002;18.316;2023-05-31T07:59:08;10.60;;;2.70;;
57341;SDS011;43175;51.002;18.316;2023-05-31T08:01:33;9.60;;;2.40;;
57341;SDS011;43175;51.002;18.316;2023-05-31T08:04:05;9.40;;;2.40;;
57341;SDS011;43175;51.002;18.316;2023-05-31T08:06:32;8.10;;;2.40;;
57341;SDS011;43175;51.002;18.316;2023-05-31T08:08:58;8.90;;;2.30;;
57341;SDS011;43175;51.002;18.316;2023-05-31T08:11:24;9.30;;;2.70;;
57341;SDS011;43175;51.002;18.316;2023-05-31T08:13:51;10.40;;;2.60;;
57341;SDS011;43175;51.002;18.316;2023-05-31T08:16:17;8.40;;;2.60;;
57341;SDS011;43175;51.002;18.316;2023-05-31T08:18:43;10.90;;;2.80;;
57341;SDS011;43175;51.002;18.316;2023-05-31T08:21:09;11.30;;;2.80;;
57341;SDS011;43175;51.002;18.316;2023-05-31T08:23:34;10.30;;;2.70;;
57341;SDS011;43175;51.002;18.316;2023-05-31T08:26:00;10.10;;;2.80;;
57341;SDS011;43175;51.002;18.316;2023-05-31T08:28:26;10.50;;;2.80;;
57341;SDS011;43175;51.002;18.316;2023-05-31T08:30:52;9.50;;;2.60;;
57341;SDS011;43175;51.002;18.316;2023-05-31T08:33:17;11.40;;;2.70;;
57341;SDS011;43175;51.002;18.316;2023-05-31T08:35:43;10.60;;;2.60;;
57341;SDS011;43175;51.002;18.316;2023-05-31T08:38:09;10.00;;;2.30;;
57341;SDS011;43175;51.002;18.316;2023-05-31T08:40:35;9.90;;;2.50;;
57341;SDS011;43175;51.002;18.316;2023-05-31T08:43:09;10.00;;;2.30;;
57341;SDS011;43175;51.002;18.316;2023-05-31T08:45:43;8.20;;;2.50;;
57341;SDS011;43175;51.002;18.316;2023-05-31T08:48:10;9.30;;;2.50;;
57341;SDS011;43175;51.002;18.316;2023-05-31T08:50:40;7.60;;;2.30;;
57341;SDS011;43175;51.002;18.316;2023-05-31T08:53:07;9.20;;;2.40;;
57341;SDS011;43175;51.002;18.316;2023-05-31T08:55:34;8.60;;;2.60;;
57341;SDS011;43175;51.002;18.316;2023-05-31T08:58:00;9.20;;;2.60;;
57341;SDS011;43175;51.002;18.316;2023-05-31T09:00:27;8.30;;;2.70;;
57341;SDS011;43175;51.002;18.316;2023-05-31T09:02:54;10.70;;;2.60;;
57341;SDS011;43175;51.002;18.316;2023-05-31T09:05:19;9.30;;;2.60;;
57341;SDS011;43175;51.002;18.316;2023-05-31T09:07:45;11.40;;;2.80;;
57341;SDS011;43175;51.002;18.316;2023-05-31T09:10:12;9.00;;;2.50;;
57341;SDS011;43175;51.002;18.316;2023-05-31T09:12:40;8.10;;;2.50;;
57341;SDS011;43175;51.002;18.316;2023-05-31T09:15:05;11.00;;;2.70;;
57341;SDS011;43175;51.002;18.316;2023-05-31T09:17:31;10.20;;;2.70;;
57341;SDS011;43175;51.002;18.316;2023-05-31T09:19:58;9.90;;;2.70;;
57341;SDS011;43175;51.002;18.316;2023-05-31T09:22:25;10.90;;;3.40;;
57341;SDS011;43175;51.002;18.316;2023-05-31T09:24:55;8.10;;;2.80;;
57341;SDS011;43175;51.002;18.316;2023-05-31T09:27:22;8.90;;;2.80;;
57341;SDS011;43175;51.002;18.316;2023-05-31T09:29:52;9.00;;;2.60;;
57341;SDS011;43175;51.002;18.316;2023-05-31T09:32:21;11.00;;;2.40;;
57341;SDS011;43175;51.002;18.316;2023-05-31T09:34:47;10.10;;;2.60;;
57341;SDS011;43175;51.002;18.316;2023-05-31T09:37:22;11.70;;;2.80;;
57341;SDS011;43175;51.002;18.316;2023-05-31T09:39:53;9.60;;;2.50;;
57341;SDS011;43175;51.002;18.316;2023-05-31T09:42:20;9.90;;;2.50;;
57341;SDS011;43175;51.002;18.316;2023-05-31T09:44:48;8.20;;;2.30;;
57341;SDS011;43175;51.002;18.316;2023-05-31T09:47:14;9.10;;;2.60;;
57341;SDS011;43175;51.002;18.316;2023-05-31T09:49:42;9.50;;;2.60;;
57341;SDS011;43175;51.002;18.316;2023-05-31T09:52:12;8.50;;;2.20;;
57341;SDS011;43175;51.002;18.316;2023-05-31T09:54:38;7.90;;;2.30;;
57341;SDS011;43175;51.002;18.316;2023-05-31T09:57:05;9.20;;;2.40;;
57341;SDS011;43175;51.002;18.316;2023-05-31T09:59:34;8.30;;;2.50;;
57341;SDS011;43175;51.002;18.316;2023-05-31T10:02:00;10.00;;;2.80;;
57341;SDS011;43175;51.002;18.316;2023-05-31T10:04:26;10.70;;;2.80;;
57341;SDS011;43175;51.002;18.316;2023-05-31T10:06:52;8.80;;;2.30;;
57341;SDS011;43175;51.002;18.316;2023-05-31T10:09:18;9.40;;;2.50;;
57341;SDS011;43175;51.002;18.316;2023-05-31T10:11:45;9.60;;;2.50;;
57341;SDS011;43175;51.002;18.316;2023-05-31T10:14:25;8.90;;;2.30;;
57341;SDS011;43175;51.002;18.316;2023-05-31T10:16:54;7.00;;;2.20;;
57341;SDS011;43175;51.002;18.316;2023-05-31T10:19:26;8.70;;;2.70;;
57341;SDS011;43175;51.002;18.316;2023-05-31T10:21:57;7.20;;;2.30;;
57341;SDS011;43175;51.002;18.316;2023-05-31T10:24:25;9.70;;;2.50;;
57341;SDS011;43175;51.002;18.316;2023-05-31T10:29:42;11.00;;;2.50;;
57341;SDS011;43175;51.002;18.316;2023-05-31T10:32:28;8.70;;;2.50;;
57341;SDS011;43175;51.002;18.316;2023-05-31T10:34:55;10.10;;;2.50;;
57341;SDS011;43175;51.002;18.316;2023-05-31T10:37:21;8.20;;;2.30;;
57341;SDS011;43175;51.002;18.316;2023-05-31T10:42:29;10.20;;;2.40;;
57341;SDS011;43175;51.002;18.316;2023-05-31T10:47:37;9.10;;;2.60;;
57341;SDS011;43175;51.002;18.316;2023-05-31T10:50:06;8.80;;;2.60;;
57341;SDS011;43175;51.002;18.316;2023-05-31T10:52:32;8.10;;;2.50;;
57341;SDS011;43175;51.002;18.316;2023-05-31T10:55:16;10.00;;;2.50;;
57341;SDS011;43175;51.002;18.316;2023-05-31T10:57:43;8.40;;;2.40;;
57341;SDS011;43175;51.002;18.316;2023-05-31T11:00:10;9.20;;;2.70;;
57341;SDS011;43175;51.002;18.316;2023-05-31T11:02:44;8.20;;;2.30;;
57341;SDS011;43175;51.002;18.316;2023-05-31T11:05:18;7.30;;;2.10;;
57341;SDS011;43175;51.002;18.316;2023-05-31T11:07:48;9.60;;;2.80;;
57341;SDS011;43175;51.002;18.316;2023-05-31T11:55:53;10.20;;;2.70;;
57341;SDS011;43175;51.002;18.316;2023-05-31T11:58:19;9.40;;;2.60;;
57341;SDS011;43175;51.002;18.316;2023-05-31T12:00:46;8.60;;;2.80;;
57341;SDS011;43175;51.002;18.316;2023-05-31T12:03:15;10.10;;;2.70;;
57341;SDS011;43175;51.002;18.316;2023-05-31T12:05:42;9.00;;;2.70;;
57341;SDS011;43175;51.002;18.316;2023-05-31T12:08:10;9.30;;;3.00;;
57341;SDS011;43175;51.002;18.316;2023-05-31T12:10:38;10.80;;;2.60;;
57341;SDS011;43175;51.002;18.316;2023-05-31T12:13:04;9.20;;;2.30;;
57341;SDS011;43175;51.002;18.316;2023-05-31T12:15:30;9.20;;;2.70;;
57341;SDS011;43175;51.002;18.316;2023-05-31T12:17:59;7.10;;;2.40;;
57341;SDS011;43175;51.002;18.316;2023-05-31T12:20:33;9.10;;;2.80;;
57341;SDS011;43175;51.002;18.316;2023-05-31T12:23:12;8.80;;;2.70;;
57341;SDS011;43175;51.002;18.316;2023-05-31T12:25:49;8.20;;;2.50;;
57341;SDS011;43175;51.002;18.316;2023-05-31T12:28:16;10.80;;;2.60;;
57341;SDS011;43175;51.002;18.316;2023-05-31T12:30:43;9.90;;;2.90;;
57341;SDS011;43175;51.002;18.316;2023-05-31T12:33:10;10.40;;;2.80;;
57341;SDS011;43175;51.002;18.316;2023-05-31T12:35:40;10.10;;;2.80;;
57341;SDS011;43175;51.002;18.316;2023-05-31T12:38:06;9.70;;;2.80;;
57341;SDS011;43175;51.002;18.316;2023-05-31T12:40:36;10.20;;;2.80;;
57341;SDS011;43175;51.002;18.316;2023-05-31T12:43:02;8.70;;;2.80;;
57341;SDS011;43175;51.002;18.316;2023-05-31T12:45:27;10.00;;;2.70;;
57341;SDS011;43175;51.002;18.316;2023-05-31T12:47:56;10.30;;;2.70;;
57341;SDS011;43175;51.002;18.316;2023-05-31T12:50:22;7.70;;;2.60;;
57341;SDS011;43175;51.002;18.316;2023-05-31T12:52:55;10.50;;;2.90;;
57341;SDS011;43175;51.002;18.316;2023-05-31T12:55:21;8.80;;;2.70;;
57341;SDS011;43175;51.002;18.316;2023-05-31T12:57:47;9.80;;;3.20;;
57341;SDS011;43175;51.002;18.316;2023-05-31T13:00:12;10.40;;;3.30;;
57341;SDS011;43175;51.002;18.316;2023-05-31T13:02:39;11.30;;;3.10;;
57341;SDS011;43175;51.002;18.316;2023-05-31T13:05:05;8.80;;;3.00;;
57341;SDS011;43175;51.002;18.316;2023-05-31T13:07:32;8.90;;;3.10;;
57341;SDS011;43175;51.002;18.316;2023-05-31T13:09:58;8.90;;;2.90;;
57341;SDS011;43175;51.002;18.316;2023-05-31T13:12:23;8.90;;;3.10;;
57341;SDS011;43175;51.002;18.316;2023-05-31T13:14:49;9.20;;;2.90;;
57341;SDS011;43175;51.002;18.316;2023-05-31T13:17:17;9.90;;;3.00;;
57341;SDS011;43175;51.002;18.316;2023-05-31T13:19:43;11.10;;;3.10;;
57341;SDS011;43175;51.002;18.316;2023-05-31T13:22:08;9.00;;;2.70;;
57341;SDS011;43175;51.002;18.316;2023-05-31T13:24:34;12.40;;;3.00;;
57341;SDS011;43175;51.002;18.316;2023-05-31T13:27:00;10.40;;;2.80;;
57341;SDS011;43175;51.002;18.316;2023-05-31T13:29:25;10.70;;;2.80;;
57341;SDS011;43175;51.002;18.316;2023-05-31T13:31:51;12.50;;;3.00;;
57341;SDS011;43175;51.002;18.316;2023-05-31T13:34:17;8.50;;;2.80;;
57341;SDS011;43175;51.002;18.316;2023-05-31T13:36:43;9.70;;;2.90;;
57341;SDS011;43175;51.002;18.316;2023-05-31T13:39:08;10.30;;;3.00;;
57341;SDS011;43175;51.002;18.316;2023-05-31T13:41:40;9.70;;;3.10;;
57341;SDS011;43175;51.002;18.316;2023-05-31T13:44:07;9.50;;;2.90;;
57341;SDS011;43175;51.002;18.316;2023-05-31T13:46:33;8.20;;;2.80;;
57341;SDS011;43175;51.002;18.316;2023-05-31T13:48:58;10.10;;;3.30;;
57341;SDS011;43175;51.002;18.316;2023-05-31T13:51:24;8.70;;;2.90;;
57341;SDS011;43175;51.002;18.316;2023-05-31T13:53:49;11.90;;;3.20;;
57341;SDS011;43175;51.002;18.316;2023-05-31T13:56:15;9.90;;;2.90;;
57341;SDS011;43175;51.002;18.316;2023-05-31T13:58:40;10.10;;;2.90;;
57341;SDS011;43175;51.002;18.316;2023-05-31T14:01:06;9.20;;;3.10;;
57341;SDS011;43175;51.002;18.316;2023-05-31T14:03:36;10.20;;;3.00;;
57341;SDS011;43175;51.002;18.316;2023-05-31T14:06:02;8.80;;;2.80;;
57341;SDS011;43175;51.002;18.316;2023-05-31T14:08:28;10.00;;;2.80;;
57341;SDS011;43175;51.002;18.316;2023-05-31T14:10:54;14.30;;;3.00;;
57341;SDS011;43175;51.002;18.316;2023-05-31T14:13:19;8.70;;;2.80;;
57341;SDS011;43175;51.002;18.316;2023-05-31T14:15:45;10.40;;;2.90;;
57341;SDS011;43175;51.002;18.316;2023-05-31T14:18:11;8.70;;;2.60;;
57341;SDS011;43175;51.002;18.316;2023-05-31T14:20:36;10.10;;;2.80;;
57341;SDS011;43175;51.002;18.316;2023-05-31T14:23:02;10.20;;;2.50;;
57341;SDS011;43175;51.002;18.316;2023-05-31T14:25:29;8.00;;;2.70;;
57341;SDS011;43175;51.002;18.316;2023-05-31T14:27:55;10.80;;;2.70;;
57341;SDS011;43175;51.002;18.316;2023-05-31T14:30:21;11.00;;;2.60;;
57341;SDS011;43175;51.002;18.316;2023-05-31T14:32:47;8.50;;;2.60;;
57341;SDS011;43175;51.002;18.316;2023-05-31T14:35:12;9.70;;;2.80;;
57341;SDS011;43175;51.002;18.316;2023-05-31T14:37:38;8.50;;;2.60;;
57341;SDS011;43175;51.002;18.316;2023-05-31T14:40:04;9.50;;;2.80;;
57341;SDS011;43175;51.002;18.316;2023-05-31T14:42:31;9.10;;;2.70;;
57341;SDS011;43175;51.002;18.316;2023-05-31T14:44:56;13.30;;;4.00;;
57341;SDS011;43175;51.002;18.316;2023-05-31T14:47:22;9.70;;;3.50;;
57341;SDS011;43175;51.002;18.316;2023-05-31T14:49:48;10.10;;;2.80;;
57341;SDS011;43175;51.002;18.316;2023-05-31T14:52:14;9.30;;;2.70;;
57341;SDS011;43175;51.002;18.316;2023-05-31T14:54:39;11.00;;;3.40;;
57341;SDS011;43175;51.002;18.316;2023-05-31T14:57:05;8.90;;;2.60;;
57341;SDS011;43175;51.002;18.316;2023-05-31T14:59:31;9.20;;;3.00;;
57341;SDS011;43175;51.002;18.316;2023-05-31T15:01:57;8.60;;;2.60;;
57341;SDS011;43175;51.002;18.316;2023-05-31T15:04:23;8.20;;;2.60;;
57341;SDS011;43175;51.002;18.316;2023-05-31T15:06:50;7.50;;;2.40;;
57341;SDS011;43175;51.002;18.316;2023-05-31T15:09:16;8.80;;;2.80;;
57341;SDS011;43175;51.002;18.316;2023-05-31T15:11:41;9.50;;;2.80;;
57341;SDS011;43175;51.002;18.316;2023-05-31T15:14:07;9.90;;;2.60;;
57341;SDS011;43175;51.002;18.316;2023-05-31T15:16:32;10.70;;;2.60;;
57341;SDS011;43175;51.002;18.316;2023-05-31T15:18:59;9.90;;;2.70;;